sensor_id;sensor_type;location;lat;lon;timestamp;P1;durP1;ratioP1;P2;durP2;ratioP2
48367;SDS011;34173;47.446;18.912;2023-08-08T00:02:12;1.85;;;0.60;;
48367;SDS011;34173;47.446;18.912;2023-08-08T00:04:40;1.05;;;0.50;;
48367;SDS011;34173;47.446;18.912;2023-08-08T00:07:07;2.17;;;0.60;;
48367;SDS011;34173;47.446;18.912;2023-08-08T00:09:34;1.45;;;0.60;;
48367;SDS011;34173;47.446;18.912;2023-08-08T00:12:02;1.50;;;0.60;;
48367;SDS011;34173;47.446;18.912;2023-08-08T00:14:30;1.60;;;0.60;;
48367;SDS011;34173;47.446;18.912;2023-08-08T00:16:57;1.75;;;0.70;;
48367;SDS011;34173;47.446;18.912;2023-08-08T00:19:25;2.00;;;0.70;;
48367;SDS011;34173;47.446;18.912;2023-08-08T00:21:52;1.92;;;0.68;;
48367;SDS011;34173;47.446;18.912;2023-08-08T00:24:20;2.37;;;0.70;;
48367;SDS011;34173;47.446;18.912;2023-08-08T00:26:48;1.48;;;0.60;;
48367;SDS011;34173;47.446;18.912;2023-08-08T00:29:15;1.60;;;0.80;;
48367;SDS011;34173;47.446;18.912;2023-08-08T00:31:43;1.95;;;0.85;;
48367;SDS011;34173;47.446;18.912;2023-08-08T00:34:10;2.35;;;0.80;;
48367;SDS011;34173;47.446;18.912;2023-08-08T00:36:38;2.25;;;0.82;;
48367;SDS011;34173;47.446;18.912;2023-08-08T00:39:05;2.40;;;0.80;;
48367;SDS011;34173;47.446;18.912;2023-08-08T00:41:33;1.75;;;0.80;;
48367;SDS011;34173;47.446;18.912;2023-08-08T00:44:02;2.58;;;0.88;;
48367;SDS011;34173;47.446;18.912;2023-08-08T00:46:29;2.00;;;0.73;;
48367;SDS011;34173;47.446;18.912;2023-08-08T00:48:58;2.30;;;0.80;;
48367;SDS011;34173;47.446;18.912;2023-08-08T00:51:25;3.12;;;0.85;;
48367;SDS011;34173;47.446;18.912;2023-08-08T00:53:54;2.25;;;0.75;;
48367;SDS011;34173;47.446;18.912;2023-08-08T00:56:22;1.87;;;0.80;;
48367;SDS011;34173;47.446;18.912;2023-08-08T00:58:49;2.50;;;1.00;;
48367;SDS011;34173;47.446;18.912;2023-08-08T01:01:17;2.33;;;0.87;;
48367;SDS011;34173;47.446;18.912;2023-08-08T01:03:46;2.53;;;0.90;;
48367;SDS011;34173;47.446;18.912;2023-08-08T01:06:31;2.67;;;0.90;;
48367;SDS011;34173;47.446;18.912;2023-08-08T01:09:21;2.58;;;1.00;;
48367;SDS011;34173;47.446;18.912;2023-08-08T01:11:54;2.15;;;0.90;;
48367;SDS011;34173;47.446;18.912;2023-08-08T01:14:22;4.00;;;1.17;;
48367;SDS011;34173;47.446;18.912;2023-08-08T01:16:52;1.65;;;0.80;;
48367;SDS011;34173;47.446;18.912;2023-08-08T01:19:27;2.28;;;1.00;;
48367;SDS011;34173;47.446;18.912;2023-08-08T01:21:57;1.90;;;0.95;;
48367;SDS011;34173;47.446;18.912;2023-08-08T01:24:30;1.80;;;0.77;;
48367;SDS011;34173;47.446;18.912;2023-08-08T01:27:00;2.37;;;0.83;;
48367;SDS011;34173;47.446;18.912;2023-08-08T01:29:28;2.58;;;0.82;;
48367;SDS011;34173;47.446;18.912;2023-08-08T01:31:55;1.98;;;0.90;;
48367;SDS011;34173;47.446;18.912;2023-08-08T01:34:25;3.78;;;1.00;;
48367;SDS011;34173;47.446;18.912;2023-08-08T01:36:55;2.35;;;0.88;;
48367;SDS011;34173;47.446;18.912;2023-08-08T01:39:25;2.72;;;0.95;;
48367;SDS011;34173;47.446;18.912;2023-08-08T01:41:54;2.00;;;0.90;;
48367;SDS011;34173;47.446;18.912;2023-08-08T01:44:22;2.17;;;0.90;;
48367;SDS011;34173;47.446;18.912;2023-08-08T01:46:53;2.60;;;1.00;;
48367;SDS011;34173;47.446;18.912;2023-08-08T01:49:21;2.67;;;0.90;;
48367;SDS011;34173;47.446;18.912;2023-08-08T01:51:48;1.77;;;0.75;;
48367;SDS011;34173;47.446;18.912;2023-08-08T01:54:18;2.87;;;0.90;;
48367;SDS011;34173;47.446;18.912;2023-08-08T01:56:46;2.50;;;0.93;;
48367;SDS011;34173;47.446;18.912;2023-08-08T01:59:14;2.40;;;0.90;;
48367;SDS011;34173;47.446;18.912;2023-08-08T02:01:42;2.78;;;1.00;;
48367;SDS011;34173;47.446;18.912;2023-08-08T02:04:10;2.92;;;1.10;;
48367;SDS011;34173;47.446;18.912;2023-08-08T02:06:38;2.22;;;1.05;;
48367;SDS011;34173;47.446;18.912;2023-08-08T02:09:05;2.83;;;0.85;;
48367;SDS011;34173;47.446;18.912;2023-08-08T02:11:34;1.92;;;0.90;;
48367;SDS011;34173;47.446;18.912;2023-08-08T02:14:02;2.78;;;0.80;;
48367;SDS011;34173;47.446;18.912;2023-08-08T02:16:29;3.05;;;1.00;;
48367;SDS011;34173;47.446;18.912;2023-08-08T02:18:58;1.98;;;0.95;;
48367;SDS011;34173;47.446;18.912;2023-08-08T02:21:26;2.92;;;0.90;;
48367;SDS011;34173;47.446;18.912;2023-08-08T02:23:53;2.30;;;0.93;;
48367;SDS011;34173;47.446;18.912;2023-08-08T02:26:21;2.70;;;0.90;;
48367;SDS011;34173;47.446;18.912;2023-08-08T02:28:49;3.22;;;0.98;;
48367;SDS011;34173;47.446;18.912;2023-08-08T02:31:16;1.98;;;1.00;;
48367;SDS011;34173;47.446;18.912;2023-08-08T02:33:50;2.85;;;1.10;;
48367;SDS011;34173;47.446;18.912;2023-08-08T02:36:18;2.58;;;0.95;;
48367;SDS011;34173;47.446;18.912;2023-08-08T02:38:46;2.78;;;0.90;;
48367;SDS011;34173;47.446;18.912;2023-08-08T02:41:14;2.50;;;0.90;;
48367;SDS011;34173;47.446;18.912;2023-08-08T02:43:41;2.50;;;0.90;;
48367;SDS011;34173;47.446;18.912;2023-08-08T02:46:09;3.28;;;1.00;;
48367;SDS011;34173;47.446;18.912;2023-08-08T02:48:36;2.58;;;1.00;;
48367;SDS011;34173;47.446;18.912;2023-08-08T02:51:05;2.10;;;1.00;;
48367;SDS011;34173;47.446;18.912;2023-08-08T02:53:33;2.08;;;0.90;;
48367;SDS011;34173;47.446;18.912;2023-08-08T02:56:00;3.08;;;1.00;;
48367;SDS011;34173;47.446;18.912;2023-08-08T02:58:29;3.28;;;1.10;;
48367;SDS011;34173;47.446;18.912;2023-08-08T03:00:57;3.12;;;1.00;;
48367;SDS011;34173;47.446;18.912;2023-08-08T03:03:27;1.70;;;0.87;;
48367;SDS011;34173;47.446;18.912;2023-08-08T03:05:55;2.00;;;0.90;;
48367;SDS011;34173;47.446;18.912;2023-08-08T03:08:23;3.00;;;1.00;;
48367;SDS011;34173;47.446;18.912;2023-08-08T03:10:50;2.83;;;1.08;;
48367;SDS011;34173;47.446;18.912;2023-08-08T03:13:18;2.97;;;1.00;;
48367;SDS011;34173;47.446;18.912;2023-08-08T03:15:47;2.37;;;0.98;;
48367;SDS011;34173;47.446;18.912;2023-08-08T03:18:15;2.20;;;0.87;;
48367;SDS011;34173;47.446;18.912;2023-08-08T03:20:43;2.08;;;0.90;;
48367;SDS011;34173;47.446;18.912;2023-08-08T03:23:11;3.00;;;1.10;;
48367;SDS011;34173;47.446;18.912;2023-08-08T03:25:39;3.50;;;1.17;;
48367;SDS011;34173;47.446;18.912;2023-08-08T03:28:07;1.90;;;1.00;;
48367;SDS011;34173;47.446;18.912;2023-08-08T03:30:37;2.43;;;0.93;;
48367;SDS011;34173;47.446;18.912;2023-08-08T03:33:06;2.65;;;0.95;;
48367;SDS011;34173;47.446;18.912;2023-08-08T03:35:34;3.33;;;1.23;;
48367;SDS011;34173;47.446;18.912;2023-08-08T03:38:02;3.30;;;1.12;;
48367;SDS011;34173;47.446;18.912;2023-08-08T03:40:30;2.67;;;1.02;;
48367;SDS011;34173;47.446;18.912;2023-08-08T03:42:58;3.40;;;1.00;;
48367;SDS011;34173;47.446;18.912;2023-08-08T03:45:26;2.30;;;0.98;;
48367;SDS011;34173;47.446;18.912;2023-08-08T03:47:54;2.90;;;1.10;;
48367;SDS011;34173;47.446;18.912;2023-08-08T03:50:22;3.15;;;1.08;;
48367;SDS011;34173;47.446;18.912;2023-08-08T03:52:49;3.65;;;1.08;;
48367;SDS011;34173;47.446;18.912;2023-08-08T03:55:17;3.17;;;1.23;;
48367;SDS011;34173;47.446;18.912;2023-08-08T03:57:45;2.60;;;1.10;;
48367;SDS011;34173;47.446;18.912;2023-08-08T04:00:12;3.37;;;0.90;;
48367;SDS011;34173;47.446;18.912;2023-08-08T04:02:40;2.87;;;1.20;;
48367;SDS011;34173;47.446;18.912;2023-08-08T04:05:08;2.15;;;1.00;;
48367;SDS011;34173;47.446;18.912;2023-08-08T04:07:36;2.72;;;1.00;;
48367;SDS011;34173;47.446;18.912;2023-08-08T04:10:03;3.08;;;1.27;;
48367;SDS011;34173;47.446;18.912;2023-08-08T04:12:31;2.70;;;1.10;;
48367;SDS011;34173;47.446;18.912;2023-08-08T04:15:00;3.60;;;1.08;;
48367;SDS011;34173;47.446;18.912;2023-08-08T04:17:28;3.03;;;1.30;;
48367;SDS011;34173;47.446;18.912;2023-08-08T04:19:56;3.28;;;1.15;;
48367;SDS011;34173;47.446;18.912;2023-08-08T04:22:24;3.37;;;1.35;;
48367;SDS011;34173;47.446;18.912;2023-08-08T04:24:51;6.22;;;1.40;;
48367;SDS011;34173;47.446;18.912;2023-08-08T04:27:19;2.70;;;1.20;;
48367;SDS011;34173;47.446;18.912;2023-08-08T04:29:46;2.25;;;1.00;;
48367;SDS011;34173;47.446;18.912;2023-08-08T04:32:14;4.00;;;1.23;;
48367;SDS011;34173;47.446;18.912;2023-08-08T04:34:43;3.37;;;1.27;;
48367;SDS011;34173;47.446;18.912;2023-08-08T04:37:10;2.70;;;1.05;;
48367;SDS011;34173;47.446;18.912;2023-08-08T04:39:38;4.77;;;1.47;;
48367;SDS011;34173;47.446;18.912;2023-08-08T04:42:06;3.42;;;1.48;;
48367;SDS011;34173;47.446;18.912;2023-08-08T04:44:33;3.83;;;1.40;;
48367;SDS011;34173;47.446;18.912;2023-08-08T04:47:01;3.72;;;1.50;;
48367;SDS011;34173;47.446;18.912;2023-08-08T04:49:29;3.95;;;1.30;;
48367;SDS011;34173;47.446;18.912;2023-08-08T04:51:56;4.37;;;1.33;;
48367;SDS011;34173;47.446;18.912;2023-08-08T04:54:24;3.45;;;1.15;;
48367;SDS011;34173;47.446;18.912;2023-08-08T04:56:52;3.55;;;1.40;;
48367;SDS011;34173;47.446;18.912;2023-08-08T04:59:20;3.87;;;1.50;;
48367;SDS011;34173;47.446;18.912;2023-08-08T05:01:47;4.40;;;1.70;;
48367;SDS011;34173;47.446;18.912;2023-08-08T05:04:15;4.60;;;1.40;;
48367;SDS011;34173;47.446;18.912;2023-08-08T05:06:44;3.70;;;1.53;;
48367;SDS011;34173;47.446;18.912;2023-08-08T05:09:11;3.60;;;1.40;;
48367;SDS011;34173;47.446;18.912;2023-08-08T05:11:39;4.60;;;1.60;;
48367;SDS011;34173;47.446;18.912;2023-08-08T05:14:06;4.53;;;1.50;;
48367;SDS011;34173;47.446;18.912;2023-08-08T05:16:35;3.28;;;1.50;;
48367;SDS011;34173;47.446;18.912;2023-08-08T05:19:03;4.03;;;1.57;;
48367;SDS011;34173;47.446;18.912;2023-08-08T05:21:30;5.20;;;1.70;;
48367;SDS011;34173;47.446;18.912;2023-08-08T05:23:58;3.47;;;1.52;;
48367;SDS011;34173;47.446;18.912;2023-08-08T05:26:25;2.83;;;1.40;;
48367;SDS011;34173;47.446;18.912;2023-08-08T05:28:54;4.25;;;1.60;;
48367;SDS011;34173;47.446;18.912;2023-08-08T05:31:22;4.05;;;1.62;;
48367;SDS011;34173;47.446;18.912;2023-08-08T05:33:49;5.55;;;1.40;;
48367;SDS011;34173;47.446;18.912;2023-08-08T05:36:17;4.37;;;1.70;;
48367;SDS011;34173;47.446;18.912;2023-08-08T05:38:44;4.65;;;1.48;;
48367;SDS011;34173;47.446;18.912;2023-08-08T05:41:12;3.55;;;1.50;;
48367;SDS011;34173;47.446;18.912;2023-08-08T05:43:40;4.95;;;1.65;;
48367;SDS011;34173;47.446;18.912;2023-08-08T05:46:07;3.65;;;1.50;;
48367;SDS011;34173;47.446;18.912;2023-08-08T05:48:35;3.95;;;1.40;;
48367;SDS011;34173;47.446;18.912;2023-08-08T05:51:02;3.87;;;1.40;;
48367;SDS011;34173;47.446;18.912;2023-08-08T05:53:32;4.47;;;1.50;;
48367;SDS011;34173;47.446;18.912;2023-08-08T05:56:00;4.53;;;1.80;;
48367;SDS011;34173;47.446;18.912;2023-08-08T05:58:27;4.47;;;1.62;;
48367;SDS011;34173;47.446;18.912;2023-08-08T06:00:55;3.22;;;1.40;;
48367;SDS011;34173;47.446;18.912;2023-08-08T06:03:22;4.12;;;1.40;;
48367;SDS011;34173;47.446;18.912;2023-08-08T06:05:50;3.65;;;1.50;;
48367;SDS011;34173;47.446;18.912;2023-08-08T06:08:18;4.43;;;1.50;;
48367;SDS011;34173;47.446;18.912;2023-08-08T06:10:46;4.15;;;1.40;;
48367;SDS011;34173;47.446;18.912;2023-08-08T06:13:13;4.10;;;1.60;;
48367;SDS011;34173;47.446;18.912;2023-08-08T06:15:41;4.35;;;1.70;;
48367;SDS011;34173;47.446;18.912;2023-08-08T06:18:09;3.83;;;1.40;;
48367;SDS011;34173;47.446;18.912;2023-08-08T06:20:36;5.12;;;1.42;;
48367;SDS011;34173;47.446;18.912;2023-08-08T06:23:04;3.40;;;1.50;;
48367;SDS011;34173;47.446;18.912;2023-08-08T06:25:32;3.83;;;1.40;;
48367;SDS011;34173;47.446;18.912;2023-08-08T06:27:59;4.45;;;1.40;;
48367;SDS011;34173;47.446;18.912;2023-08-08T06:30:27;4.03;;;1.42;;
48367;SDS011;34173;47.446;18.912;2023-08-08T06:32:54;4.60;;;1.55;;
48367;SDS011;34173;47.446;18.912;2023-08-08T06:35:22;4.95;;;1.60;;
48367;SDS011;34173;47.446;18.912;2023-08-08T06:37:49;4.87;;;1.60;;
48367;SDS011;34173;47.446;18.912;2023-08-08T06:40:17;4.05;;;1.50;;
48367;SDS011;34173;47.446;18.912;2023-08-08T06:42:45;4.35;;;1.60;;
48367;SDS011;34173;47.446;18.912;2023-08-08T06:45:12;3.87;;;1.60;;
48367;SDS011;34173;47.446;18.912;2023-08-08T06:47:40;3.40;;;1.48;;
48367;SDS011;34173;47.446;18.912;2023-08-08T06:50:08;4.03;;;1.40;;
48367;SDS011;34173;47.446;18.912;2023-08-08T06:52:36;4.35;;;1.40;;
48367;SDS011;34173;47.446;18.912;2023-08-08T06:55:04;3.78;;;1.52;;
48367;SDS011;34173;47.446;18.912;2023-08-08T06:57:32;4.35;;;1.60;;
48367;SDS011;34173;47.446;18.912;2023-08-08T07:00:01;3.70;;;1.58;;
48367;SDS011;34173;47.446;18.912;2023-08-08T07:02:32;4.03;;;1.60;;
48367;SDS011;34173;47.446;18.912;2023-08-08T07:05:00;4.40;;;1.60;;
48367;SDS011;34173;47.446;18.912;2023-08-08T07:07:28;5.22;;;1.83;;
48367;SDS011;34173;47.446;18.912;2023-08-08T07:09:57;6.45;;;1.83;;
48367;SDS011;34173;47.446;18.912;2023-08-08T07:12:25;4.87;;;1.70;;
48367;SDS011;34173;47.446;18.912;2023-08-08T07:14:52;4.47;;;1.73;;
48367;SDS011;34173;47.446;18.912;2023-08-08T07:17:21;6.18;;;1.90;;
48367;SDS011;34173;47.446;18.912;2023-08-08T07:19:48;7.28;;;2.12;;
48367;SDS011;34173;47.446;18.912;2023-08-08T07:22:16;4.37;;;1.60;;
48367;SDS011;34173;47.446;18.912;2023-08-08T07:24:43;6.57;;;1.90;;
48367;SDS011;34173;47.446;18.912;2023-08-08T07:27:11;4.73;;;1.70;;
48367;SDS011;34173;47.446;18.912;2023-08-08T07:29:38;5.35;;;1.83;;
48367;SDS011;34173;47.446;18.912;2023-08-08T07:32:06;4.93;;;1.80;;
48367;SDS011;34173;47.446;18.912;2023-08-08T07:34:34;4.55;;;1.50;;
48367;SDS011;34173;47.446;18.912;2023-08-08T07:37:01;4.37;;;1.60;;
48367;SDS011;34173;47.446;18.912;2023-08-08T07:39:30;3.75;;;1.60;;
48367;SDS011;34173;47.446;18.912;2023-08-08T07:41:58;3.63;;;1.50;;
48367;SDS011;34173;47.446;18.912;2023-08-08T07:44:26;3.25;;;1.37;;
48367;SDS011;34173;47.446;18.912;2023-08-08T07:46:53;4.20;;;1.33;;
48367;SDS011;34173;47.446;18.912;2023-08-08T07:49:21;4.40;;;1.52;;
48367;SDS011;34173;47.446;18.912;2023-08-08T07:51:49;3.92;;;1.60;;
48367;SDS011;34173;47.446;18.912;2023-08-08T07:54:16;5.32;;;1.50;;
48367;SDS011;34173;47.446;18.912;2023-08-08T07:56:44;4.57;;;1.40;;
48367;SDS011;34173;47.446;18.912;2023-08-08T07:59:12;3.55;;;1.40;;
48367;SDS011;34173;47.446;18.912;2023-08-08T08:01:40;3.17;;;1.20;;
48367;SDS011;34173;47.446;18.912;2023-08-08T08:04:08;4.40;;;1.30;;
48367;SDS011;34173;47.446;18.912;2023-08-08T08:06:36;4.55;;;1.50;;
48367;SDS011;34173;47.446;18.912;2023-08-08T08:09:04;4.55;;;1.40;;
48367;SDS011;34173;47.446;18.912;2023-08-08T08:11:32;3.30;;;1.30;;
48367;SDS011;34173;47.446;18.912;2023-08-08T08:13:59;4.97;;;1.30;;
48367;SDS011;34173;47.446;18.912;2023-08-08T08:16:27;4.55;;;1.45;;
48367;SDS011;34173;47.446;18.912;2023-08-08T08:18:54;4.32;;;1.30;;
48367;SDS011;34173;47.446;18.912;2023-08-08T08:21:22;3.83;;;1.42;;
48367;SDS011;34173;47.446;18.912;2023-08-08T08:23:49;4.70;;;1.42;;
48367;SDS011;34173;47.446;18.912;2023-08-08T08:26:17;4.40;;;1.30;;
48367;SDS011;34173;47.446;18.912;2023-08-08T08:28:44;3.50;;;1.23;;
48367;SDS011;34173;47.446;18.912;2023-08-08T08:31:12;4.32;;;1.40;;
48367;SDS011;34173;47.446;18.912;2023-08-08T08:33:40;4.35;;;1.20;;
48367;SDS011;34173;47.446;18.912;2023-08-08T08:36:08;3.87;;;1.27;;
48367;SDS011;34173;47.446;18.912;2023-08-08T08:38:37;3.72;;;1.12;;
48367;SDS011;34173;47.446;18.912;2023-08-08T08:41:05;3.83;;;1.23;;
48367;SDS011;34173;47.446;18.912;2023-08-08T08:43:33;3.58;;;1.20;;
48367;SDS011;34173;47.446;18.912;2023-08-08T08:46:01;3.95;;;1.35;;
48367;SDS011;34173;47.446;18.912;2023-08-08T08:48:30;3.45;;;1.25;;
48367;SDS011;34173;47.446;18.912;2023-08-08T08:50:58;3.62;;;1.30;;
48367;SDS011;34173;47.446;18.912;2023-08-08T08:53:26;2.55;;;1.10;;
48367;SDS011;34173;47.446;18.912;2023-08-08T08:55:54;4.55;;;1.10;;
48367;SDS011;34173;47.446;18.912;2023-08-08T08:58:24;3.47;;;1.57;;
48367;SDS011;34173;47.446;18.912;2023-08-08T09:00:52;2.83;;;1.30;;
48367;SDS011;34173;47.446;18.912;2023-08-08T09:03:21;4.70;;;1.48;;
48367;SDS011;34173;47.446;18.912;2023-08-08T09:05:48;3.53;;;1.40;;
48367;SDS011;34173;47.446;18.912;2023-08-08T09:08:16;4.00;;;1.30;;
48367;SDS011;34173;47.446;18.912;2023-08-08T09:10:44;3.42;;;1.40;;
48367;SDS011;34173;47.446;18.912;2023-08-08T09:13:11;4.18;;;1.33;;
48367;SDS011;34173;47.446;18.912;2023-08-08T09:15:39;4.53;;;1.40;;
48367;SDS011;34173;47.446;18.912;2023-08-08T09:18:07;3.42;;;1.40;;
48367;SDS011;34173;47.446;18.912;2023-08-08T09:20:35;3.00;;;1.23;;
48367;SDS011;34173;47.446;18.912;2023-08-08T09:23:02;4.47;;;1.25;;
48367;SDS011;34173;47.446;18.912;2023-08-08T09:25:30;3.15;;;1.30;;
48367;SDS011;34173;47.446;18.912;2023-08-08T09:27:58;4.43;;;1.25;;
48367;SDS011;34173;47.446;18.912;2023-08-08T09:30:25;5.45;;;1.30;;
48367;SDS011;34173;47.446;18.912;2023-08-08T09:32:53;3.47;;;1.30;;
48367;SDS011;34173;47.446;18.912;2023-08-08T09:35:25;3.30;;;1.20;;
48367;SDS011;34173;47.446;18.912;2023-08-08T09:37:54;4.07;;;1.43;;
48367;SDS011;34173;47.446;18.912;2023-08-08T09:40:22;3.22;;;1.30;;
48367;SDS011;34173;47.446;18.912;2023-08-08T09:42:51;4.18;;;1.40;;
48367;SDS011;34173;47.446;18.912;2023-08-08T09:45:20;3.75;;;1.50;;
48367;SDS011;34173;47.446;18.912;2023-08-08T09:47:48;4.32;;;1.20;;
48367;SDS011;34173;47.446;18.912;2023-08-08T09:50:17;3.42;;;1.40;;
48367;SDS011;34173;47.446;18.912;2023-08-08T09:52:46;4.60;;;1.30;;
48367;SDS011;34173;47.446;18.912;2023-08-08T09:55:14;3.05;;;1.30;;
48367;SDS011;34173;47.446;18.912;2023-08-08T09:57:42;4.60;;;1.35;;
48367;SDS011;34173;47.446;18.912;2023-08-08T10:00:11;3.53;;;1.20;;
48367;SDS011;34173;47.446;18.912;2023-08-08T10:02:44;4.12;;;1.35;;
48367;SDS011;34173;47.446;18.912;2023-08-08T10:05:13;4.90;;;1.45;;
48367;SDS011;34173;47.446;18.912;2023-08-08T10:07:41;4.05;;;1.50;;
48367;SDS011;34173;47.446;18.912;2023-08-08T10:10:09;4.75;;;1.23;;
48367;SDS011;34173;47.446;18.912;2023-08-08T10:12:38;4.82;;;1.45;;
48367;SDS011;34173;47.446;18.912;2023-08-08T10:15:06;3.50;;;1.30;;
48367;SDS011;34173;47.446;18.912;2023-08-08T10:17:38;3.67;;;1.40;;
48367;SDS011;34173;47.446;18.912;2023-08-08T10:20:07;4.17;;;1.50;;
48367;SDS011;34173;47.446;18.912;2023-08-08T10:22:42;4.10;;;1.50;;
48367;SDS011;34173;47.446;18.912;2023-08-08T10:25:24;5.10;;;1.50;;
48367;SDS011;34173;47.446;18.912;2023-08-08T10:28:08;3.20;;;1.25;;
48367;SDS011;34173;47.446;18.912;2023-08-08T10:30:54;3.75;;;1.20;;
48367;SDS011;34173;47.446;18.912;2023-08-08T10:33:27;4.68;;;1.25;;
48367;SDS011;34173;47.446;18.912;2023-08-08T10:38:24;2.83;;;1.27;;
48367;SDS011;34173;47.446;18.912;2023-08-08T10:40:56;3.37;;;1.30;;
48367;SDS011;34173;47.446;18.912;2023-08-08T10:43:26;3.72;;;1.27;;
48367;SDS011;34173;47.446;18.912;2023-08-08T10:45:59;3.53;;;1.37;;
48367;SDS011;34173;47.446;18.912;2023-08-08T10:48:53;4.95;;;1.35;;
48367;SDS011;34173;47.446;18.912;2023-08-08T10:51:22;3.58;;;1.27;;
48367;SDS011;34173;47.446;18.912;2023-08-08T10:53:52;3.17;;;1.20;;
48367;SDS011;34173;47.446;18.912;2023-08-08T10:56:20;2.50;;;1.17;;
48367;SDS011;34173;47.446;18.912;2023-08-08T10:58:50;4.00;;;1.40;;
48367;SDS011;34173;47.446;18.912;2023-08-08T11:01:17;3.28;;;1.23;;
48367;SDS011;34173;47.446;18.912;2023-08-08T11:03:45;3.73;;;1.30;;
48367;SDS011;34173;47.446;18.912;2023-08-08T11:06:16;3.17;;;1.20;;
48367;SDS011;34173;47.446;18.912;2023-08-08T11:08:43;3.00;;;1.35;;
48367;SDS011;34173;47.446;18.912;2023-08-08T11:11:11;2.92;;;1.05;;
48367;SDS011;34173;47.446;18.912;2023-08-08T11:13:39;3.00;;;1.20;;
48367;SDS011;34173;47.446;18.912;2023-08-08T11:16:07;4.35;;;1.37;;
48367;SDS011;34173;47.446;18.912;2023-08-08T11:18:34;3.75;;;1.30;;
48367;SDS011;34173;47.446;18.912;2023-08-08T11:21:09;3.45;;;1.23;;
48367;SDS011;34173;47.446;18.912;2023-08-08T11:23:45;4.65;;;1.40;;
48367;SDS011;34173;47.446;18.912;2023-08-08T11:26:16;3.15;;;1.30;;
48367;SDS011;34173;47.446;18.912;2023-08-08T11:28:51;3.78;;;1.45;;
48367;SDS011;34173;47.446;18.912;2023-08-08T11:31:19;4.55;;;1.45;;
48367;SDS011;34173;47.446;18.912;2023-08-08T11:33:48;4.87;;;1.50;;
48367;SDS011;34173;47.446;18.912;2023-08-08T11:36:16;3.50;;;1.35;;
48367;SDS011;34173;47.446;18.912;2023-08-08T11:38:43;2.75;;;1.27;;
48367;SDS011;34173;47.446;18.912;2023-08-08T11:41:12;3.45;;;1.65;;
48367;SDS011;34173;47.446;18.912;2023-08-08T11:43:40;3.22;;;1.40;;
48367;SDS011;34173;47.446;18.912;2023-08-08T11:46:12;3.75;;;1.48;;
48367;SDS011;34173;47.446;18.912;2023-08-08T11:48:39;3.33;;;1.43;;
48367;SDS011;34173;47.446;18.912;2023-08-08T11:51:07;3.47;;;1.45;;
48367;SDS011;34173;47.446;18.912;2023-08-08T11:53:47;2.80;;;1.30;;
48367;SDS011;34173;47.446;18.912;2023-08-08T11:56:16;3.58;;;1.30;;
48367;SDS011;34173;47.446;18.912;2023-08-08T11:58:44;3.60;;;1.35;;
48367;SDS011;34173;47.446;18.912;2023-08-08T12:01:12;3.12;;;1.20;;
48367;SDS011;34173;47.446;18.912;2023-08-08T12:03:41;3.10;;;1.30;;
48367;SDS011;34173;47.446;18.912;2023-08-08T12:06:13;3.60;;;1.30;;
48367;SDS011;34173;47.446;18.912;2023-08-08T12:08:44;4.40;;;1.30;;
48367;SDS011;34173;47.446;18.912;2023-08-08T12:11:13;3.78;;;1.40;;
48367;SDS011;34173;47.446;18.912;2023-08-08T12:13:42;2.45;;;1.12;;
48367;SDS011;34173;47.446;18.912;2023-08-08T12:16:11;5.00;;;1.40;;
48367;SDS011;34173;47.446;18.912;2023-08-08T12:18:44;3.55;;;1.25;;
48367;SDS011;34173;47.446;18.912;2023-08-08T12:21:12;2.53;;;1.15;;
48367;SDS011;34173;47.446;18.912;2023-08-08T12:23:40;4.65;;;1.23;;
48367;SDS011;34173;47.446;18.912;2023-08-08T12:26:07;3.35;;;1.10;;
48367;SDS011;34173;47.446;18.912;2023-08-08T12:28:35;3.03;;;1.15;;
48367;SDS011;34173;47.446;18.912;2023-08-08T12:31:03;4.90;;;1.40;;
48367;SDS011;34173;47.446;18.912;2023-08-08T12:33:31;3.03;;;1.37;;
48367;SDS011;34173;47.446;18.912;2023-08-08T12:35:58;2.95;;;1.20;;
48367;SDS011;34173;47.446;18.912;2023-08-08T12:38:29;2.17;;;1.15;;
48367;SDS011;34173;47.446;18.912;2023-08-08T12:40:57;2.78;;;1.30;;
48367;SDS011;34173;47.446;18.912;2023-08-08T12:43:25;2.92;;;1.30;;
48367;SDS011;34173;47.446;18.912;2023-08-08T12:45:52;3.90;;;1.30;;
48367;SDS011;34173;47.446;18.912;2023-08-08T12:48:20;3.63;;;1.20;;
48367;SDS011;34173;47.446;18.912;2023-08-08T12:50:47;4.62;;;1.40;;
48367;SDS011;34173;47.446;18.912;2023-08-08T12:53:15;3.58;;;1.17;;
48367;SDS011;34173;47.446;18.912;2023-08-08T12:55:42;3.85;;;1.20;;
48367;SDS011;34173;47.446;18.912;2023-08-08T12:58:11;3.13;;;1.23;;
48367;SDS011;34173;47.446;18.912;2023-08-08T13:00:38;3.58;;;1.30;;
48367;SDS011;34173;47.446;18.912;2023-08-08T13:03:06;3.35;;;1.12;;
48367;SDS011;34173;47.446;18.912;2023-08-08T13:05:34;2.50;;;1.20;;
48367;SDS011;34173;47.446;18.912;2023-08-08T13:08:02;2.80;;;1.20;;
48367;SDS011;34173;47.446;18.912;2023-08-08T13:10:30;2.75;;;1.17;;
48367;SDS011;34173;47.446;18.912;2023-08-08T13:12:58;3.12;;;1.30;;
48367;SDS011;34173;47.446;18.912;2023-08-08T13:15:26;3.70;;;1.33;;
48367;SDS011;34173;47.446;18.912;2023-08-08T13:17:54;2.80;;;1.17;;
48367;SDS011;34173;47.446;18.912;2023-08-08T13:20:21;2.72;;;1.27;;
48367;SDS011;34173;47.446;18.912;2023-08-08T13:22:49;2.83;;;1.10;;
48367;SDS011;34173;47.446;18.912;2023-08-08T13:25:17;3.53;;;1.20;;
48367;SDS011;34173;47.446;18.912;2023-08-08T13:27:45;3.22;;;1.20;;
48367;SDS011;34173;47.446;18.912;2023-08-08T13:30:14;3.60;;;1.40;;
48367;SDS011;34173;47.446;18.912;2023-08-08T13:32:44;2.40;;;1.25;;
48367;SDS011;34173;47.446;18.912;2023-08-08T13:35:11;3.58;;;1.02;;
48367;SDS011;34173;47.446;18.912;2023-08-08T13:37:39;2.50;;;1.10;;
48367;SDS011;34173;47.446;18.912;2023-08-08T13:40:06;2.80;;;1.02;;
48367;SDS011;34173;47.446;18.912;2023-08-08T13:42:34;2.83;;;1.12;;
48367;SDS011;34173;47.446;18.912;2023-08-08T13:45:02;2.87;;;1.10;;
48367;SDS011;34173;47.446;18.912;2023-08-08T13:47:30;2.60;;;1.02;;
48367;SDS011;34173;47.446;18.912;2023-08-08T13:49:57;2.90;;;0.90;;
48367;SDS011;34173;47.446;18.912;2023-08-08T13:52:24;4.72;;;1.23;;
48367;SDS011;34173;47.446;18.912;2023-08-08T13:54:52;2.62;;;1.00;;
48367;SDS011;34173;47.446;18.912;2023-08-08T13:57:21;2.70;;;1.00;;
48367;SDS011;34173;47.446;18.912;2023-08-08T13:59:48;2.70;;;0.90;;
48367;SDS011;34173;47.446;18.912;2023-08-08T14:02:16;2.40;;;0.98;;
48367;SDS011;34173;47.446;18.912;2023-08-08T14:04:45;2.20;;;0.90;;
48367;SDS011;34173;47.446;18.912;2023-08-08T14:07:13;2.37;;;1.08;;
48367;SDS011;34173;47.446;18.912;2023-08-08T14:09:41;2.80;;;1.00;;
48367;SDS011;34173;47.446;18.912;2023-08-08T14:12:09;3.30;;;1.10;;
48367;SDS011;34173;47.446;18.912;2023-08-08T14:14:37;1.60;;;0.85;;
48367;SDS011;34173;47.446;18.912;2023-08-08T14:17:04;2.20;;;0.90;;
48367;SDS011;34173;47.446;18.912;2023-08-08T14:19:32;2.15;;;1.00;;
48367;SDS011;34173;47.446;18.912;2023-08-08T14:21:59;2.30;;;1.00;;
48367;SDS011;34173;47.446;18.912;2023-08-08T14:24:28;3.50;;;0.90;;
48367;SDS011;34173;47.446;18.912;2023-08-08T14:26:55;2.55;;;0.90;;
48367;SDS011;34173;47.446;18.912;2023-08-08T14:29:23;2.80;;;1.00;;
48367;SDS011;34173;47.446;18.912;2023-08-08T14:31:50;2.05;;;1.00;;
48367;SDS011;34173;47.446;18.912;2023-08-08T14:34:28;2.20;;;0.90;;
48367;SDS011;34173;47.446;18.912;2023-08-08T14:36:56;3.15;;;0.90;;
48367;SDS011;34173;47.446;18.912;2023-08-08T14:39:24;4.50;;;1.10;;
48367;SDS011;34173;47.446;18.912;2023-08-08T14:41:53;3.78;;;1.00;;
48367;SDS011;34173;47.446;18.912;2023-08-08T14:44:21;2.97;;;0.90;;